Time;durP1;ratioP1;P1;durP2;ratioP2;P2;SDS_P1;SDS_P2;PMS_P1;PMS_P2;Temp;Humidity;BMP_temperature;BMP_pressure;BME280_temperature;BME280_humidity;BME280_pressure;Samples;Min_cycle;Max_cycle;Signal;HPM_P1;HPM_P2
2022/04/18 00:01:14;;;;;;;2.80;1.50;;;3.40;86.50;;;;;;4988093;28;20238;-64
2022/04/18 00:03:40;;;;;;;2.13;1.60;;;3.30;87.00;;;;;;5006037;28;20213;-65
2022/04/18 00:06:06;;;;;;;2.20;1.20;;;3.30;87.40;;;;;;5005276;28;20314;-64
2022/04/18 00:08:31;;;;;;;3.27;2.00;;;3.30;87.10;;;;;;5004508;28;20194;-65
2022/04/18 00:10:57;;;;;;;3.50;1.50;;;3.30;87.00;;;;;;5007304;28;20187;-64
2022/04/18 00:13:23;;;;;;;2.17;1.20;;;3.20;87.50;;;;;;5011282;28;20190;-64
2022/04/18 00:15:49;;;;;;;2.30;1.40;;;3.20;87.10;;;;;;5005370;28;20214;-64
2022/04/18 00:18:15;;;;;;;2.10;1.20;;;3.20;87.50;;;;;;5011296;28;20682;-62
2022/04/18 00:20:40;;;;;;;2.67;1.50;;;3.20;87.20;;;;;;5005321;28;20429;-65
2022/04/18 00:23:06;;;;;;;2.67;1.47;;;3.20;87.30;;;;;;5003556;28;20194;-64
2022/04/18 00:25:32;;;;;;;2.53;1.63;;;3.20;86.80;;;;;;5005669;28;20289;-64
2022/04/18 00:27:58;;;;;;;2.40;1.43;;;3.20;86.60;;;;;;5005868;28;20540;-64
2022/04/18 00:30:23;;;;;;;2.70;1.27;;;3.20;87.20;;;;;;5005292;28;20422;-64
2022/04/18 00:32:49;;;;;;;4.47;1.33;;;3.10;87.00;;;;;;5005720;28;20303;-65
2022/04/18 00:35:14;;;;;;;2.30;1.00;;;3.00;87.70;;;;;;5005583;28;20210;-62
2022/04/18 00:37:40;;;;;;;2.63;1.50;;;3.00;87.50;;;;;;5005362;28;20215;-63
2022/04/18 00:40:07;;;;;;;2.20;1.30;;;3.10;87.80;;;;;;5005195;28;20241;-64
2022/04/18 00:42:34;;;;;;;2.07;1.10;;;3.00;87.10;;;;;;5005656;28;20183;-65
2022/04/18 00:45:00;;;;;;;2.53;1.50;;;2.90;87.50;;;;;;5010208;28;20427;-65
2022/04/18 00:47:26;;;;;;;2.80;1.23;;;2.80;87.80;;;;;;5013127;28;20959;-65
2022/04/18 00:49:51;;;;;;;4.03;1.70;;;2.70;88.40;;;;;;5004869;28;20526;-65
2022/04/18 00:52:17;;;;;;;3.47;1.60;;;2.70;89.20;;;;;;5005556;28;20324;-65
2022/04/18 00:54:44;;;;;;;4.77;1.40;;;2.70;89.90;;;;;;5005336;28;20217;-66
2022/04/18 00:57:12;;;;;;;2.33;1.20;;;2.60;89.50;;;;;;5005367;28;20527;-64
2022/04/18 00:59:38;;;;;;;4.70;1.57;;;2.60;89.80;;;;;;5004713;28;20513;-64
2022/04/18 01:02:05;;;;;;;6.13;1.50;;;2.60;89.70;;;;;;5010218;28;20528;-64
2022/04/18 01:04:33;;;;;;;2.03;1.30;;;2.60;89.50;;;;;;5005029;28;20187;-65
2022/04/18 01:07:02;;;;;;;4.93;2.00;;;2.60;89.30;;;;;;5005389;28;20512;-66
2022/04/18 01:09:28;;;;;;;7.43;2.77;;;2.60;89.30;;;;;;5004237;28;20449;-66
2022/04/18 01:11:54;;;;;;;3.80;1.67;;;2.60;89.30;;;;;;5004956;28;20484;-67
2022/04/18 01:14:20;;;;;;;4.23;1.77;;;2.60;89.70;;;;;;5005390;28;20835;-65
2022/04/18 01:16:45;;;;;;;2.10;1.20;;;2.60;89.60;;;;;;5005173;28;20337;-67
2022/04/18 01:19:11;;;;;;;2.90;1.80;;;2.40;89.40;;;;;;5010543;28;20206;-66
2022/04/18 01:21:37;;;;;;;3.43;1.83;;;2.50;89.70;;;;;;5005867;28;20551;-67
2022/04/18 01:28:58;;;;;;;2.97;1.33;;;2.40;90.00;;;;;;5003719;28;20206;-67
2022/04/18 01:29:32;;;;;;;2.93;1.40;;;2.30;89.90;;;;;;5004284;28;20437;-67
2022/04/18 01:31:57;;;;;;;2.97;1.47;;;2.20;90.40;;;;;;5005261;28;20433;-67
2022/04/18 01:34:23;;;;;;;2.67;1.47;;;2.30;90.50;;;;;;5008725;28;20342;-67
2022/04/18 01:36:48;;;;;;;2.20;1.30;;;2.30;90.60;;;;;;5009661;28;20245;-66
2022/04/18 01:39:14;;;;;;;4.93;2.07;;;2.30;90.30;;;;;;5007380;28;20223;-67
2022/04/18 01:41:40;;;;;;;4.53;2.17;;;2.30;90.40;;;;;;5008337;28;20183;-66
2022/04/18 01:44:05;;;;;;;3.30;1.63;;;2.20;90.80;;;;;;5008503;28;20213;-64
2022/04/18 01:46:31;;;;;;;5.47;1.87;;;2.20;90.60;;;;;;5009594;28;20726;-65
2022/04/18 01:48:56;;;;;;;6.23;2.03;;;2.10;90.70;;;;;;5012259;28;20390;-67
2022/04/18 01:51:22;;;;;;;6.10;2.10;;;2.10;90.70;;;;;;5017174;28;20630;-65
2022/04/18 01:53:48;;;;;;;2.80;1.37;;;2.20;91.00;;;;;;5014425;28;20218;-64
2022/04/18 01:56:14;;;;;;;3.33;2.10;;;2.20;90.90;;;;;;5015046;28;20211;-66
2022/04/18 01:58:40;;;;;;;7.50;1.70;;;2.10;90.50;;;;;;5007718;28;20268;-65
2022/04/18 02:01:06;;;;;;;3.53;1.90;;;2.10;90.70;;;;;;5008504;28;20462;-65
2022/04/18 02:03:32;;;;;;;2.17;1.33;;;2.00;90.80;;;;;;5009272;28;20195;-64
2022/04/18 02:05:58;;;;;;;4.87;2.30;;;2.00;91.10;;;;;;5008163;28;20453;-65
2022/04/18 02:08:24;;;;;;;4.23;1.80;;;2.00;90.90;;;;;;5007339;28;20583;-64
2022/04/18 02:10:49;;;;;;;7.47;1.73;;;1.90;91.40;;;;;;5014419;28;20206;-65
2022/04/18 02:13:15;;;;;;;6.00;1.80;;;1.90;91.50;;;;;;5008226;28;20193;-65
2022/04/18 02:15:42;;;;;;;3.83;1.80;;;1.80;91.50;;;;;;4990404;28;20462;-65
2022/04/18 02:18:08;;;;;;;2.80;1.53;;;1.90;91.60;;;;;;5007891;28;20219;-67
2022/04/18 02:20:33;;;;;;;3.30;1.97;;;1.80;91.40;;;;;;5007716;28;20767;-61
2022/04/18 02:22:59;;;;;;;2.60;1.57;;;1.80;91.50;;;;;;5006559;28;20198;-63
2022/04/18 02:25:25;;;;;;;3.40;2.07;;;1.70;91.90;;;;;;5010389;28;20687;-65
2022/04/18 02:27:51;;;;;;;2.27;1.23;;;1.70;91.80;;;;;;5013368;28;20506;-64
2022/04/18 02:30:17;;;;;;;3.90;2.10;;;1.70;91.90;;;;;;5007534;28;20297;-64
2022/04/18 02:32:49;;;;;;;5.17;1.33;;;1.70;92.10;;;;;;4990087;28;20556;-65
2022/04/18 02:35:17;;;;;;;8.43;1.70;;;1.70;92.30;;;;;;5009586;28;20216;-65
2022/04/18 02:37:42;;;;;;;2.60;1.23;;;1.70;91.80;;;;;;5007160;28;20896;-64
2022/04/18 02:40:09;;;;;;;2.70;1.47;;;1.70;92.00;;;;;;5008511;28;20966;-64
2022/04/18 02:42:34;;;;;;;2.77;1.77;;;1.60;91.80;;;;;;5014057;28;20282;-64
2022/04/18 02:45:00;;;;;;;5.37;2.27;;;1.60;92.00;;;;;;5007779;28;20436;-65
2022/04/18 02:47:26;;;;;;;5.23;2.63;;;1.70;91.90;;;;;;5013293;28;20202;-65
2022/04/18 02:49:51;;;;;;;4.37;1.93;;;1.70;92.00;;;;;;5006543;28;20602;-63
2022/04/18 02:52:17;;;;;;;4.60;1.80;;;1.70;92.00;;;;;;5006766;28;20206;-63
2022/04/18 02:54:44;;;;;;;3.93;1.83;;;1.70;91.80;;;;;;5012660;28;20191;-62
2022/04/18 02:57:11;;;;;;;5.23;2.27;;;1.70;91.70;;;;;;5007206;28;21009;-65
2022/04/18 02:59:38;;;;;;;16.27;1.90;;;1.70;91.80;;;;;;5006559;28;20557;-65
2022/04/18 03:02:04;;;;;;;3.63;1.70;;;1.60;91.90;;;;;;4989639;28;20952;-65
2022/04/18 03:04:29;;;;;;;6.70;2.70;;;1.70;91.90;;;;;;5006750;28;20801;-64
2022/04/18 03:06:55;;;;;;;6.87;2.10;;;1.70;91.80;;;;;;5006532;28;20438;-64
2022/04/18 03:09:21;;;;;;;4.67;2.40;;;1.60;91.80;;;;;;5005565;28;20297;-64
2022/04/18 03:11:46;;;;;;;5.27;2.00;;;1.60;91.80;;;;;;5006863;28;20293;-65
2022/04/18 03:14:12;;;;;;;6.67;1.93;;;1.60;92.20;;;;;;5006729;28;20219;-65
2022/04/18 03:16:38;;;;;;;3.50;1.97;;;1.60;92.20;;;;;;5007098;28;20576;-64
2022/04/18 03:19:03;;;;;;;8.50;2.10;;;1.60;91.90;;;;;;5005459;28;20238;-65
2022/04/18 03:21:29;;;;;;;2.57;1.57;;;1.50;92.20;;;;;;5006740;28;20651;-64
2022/04/18 03:23:55;;;;;;;3.17;1.40;;;1.40;92.20;;;;;;5007815;28;20626;-65
2022/04/18 03:26:21;;;;;;;5.33;2.13;;;1.40;92.50;;;;;;5010397;28;20296;-64
2022/04/18 03:28:46;;;;;;;7.10;1.40;;;1.40;92.50;;;;;;4988205;28;20473;-64
2022/04/18 03:31:12;;;;;;;6.60;1.93;;;1.40;92.30;;;;;;5012423;28;20193;-65
2022/04/18 03:33:38;;;;;;;2.77;1.47;;;1.40;92.50;;;;;;5008465;28;20191;-65
2022/04/18 03:41:32;;;;;;;6.23;2.00;;;1.10;92.40;;;;;;5006387;28;20564;-65
2022/04/18 03:43:58;;;;;;;4.13;1.90;;;1.10;93.00;;;;;;5006286;28;20514;-65
2022/04/18 03:46:24;;;;;;;4.93;2.37;;;1.10;93.00;;;;;;5005644;28;20237;-64
2022/04/18 03:48:49;;;;;;;3.67;2.10;;;1.20;93.20;;;;;;5005302;28;20269;-65
2022/04/18 03:51:15;;;;;;;3.90;2.23;;;1.10;93.00;;;;;;5006148;28;20198;-65
2022/04/18 03:53:40;;;;;;;6.87;1.90;;;1.10;93.60;;;;;;5005722;28;20223;-67
2022/04/18 03:56:06;;;;;;;6.30;2.47;;;1.10;93.10;;;;;;5005640;28;20203;-63
2022/04/18 03:58:32;;;;;;;5.30;2.23;;;1.20;93.20;;;;;;5005464;28;20593;-64
2022/04/18 04:00:57;;;;;;;3.63;2.57;;;1.20;93.00;;;;;;5012317;28;20193;-64
2022/04/18 04:03:24;;;;;;;4.20;2.70;;;1.20;92.90;;;;;;5006326;28;20187;-64
2022/04/18 04:05:50;;;;;;;6.90;3.03;;;1.20;93.00;;;;;;5005793;28;20199;-65
2022/04/18 04:08:18;;;;;;;4.77;2.47;;;1.30;92.80;;;;;;5004211;28;20852;-64
2022/04/18 04:10:44;;;;;;;4.83;2.20;;;1.20;92.80;;;;;;5005745;28;20183;-64
2022/04/18 04:13:09;;;;;;;5.57;2.00;;;1.10;92.70;;;;;;5005611;28;20516;-65
2022/04/18 04:15:35;;;;;;;4.30;2.20;;;1.10;93.20;;;;;;5005928;28;21021;-67
2022/04/18 04:18:00;;;;;;;3.23;2.10;;;1.00;93.20;;;;;;5005969;28;20214;-64
2022/04/18 04:20:26;;;;;;;3.70;1.90;;;1.00;93.30;;;;;;5006735;28;20281;-64
2022/04/18 04:22:52;;;;;;;4.67;2.10;;;1.00;93.20;;;;;;5010289;28;20190;-62
2022/04/18 04:25:21;;;;;;;8.67;1.60;;;0.90;93.20;;;;;;5005257;28;20689;-65
2022/04/18 04:27:46;;;;;;;3.53;2.00;;;0.80;93.50;;;;;;4999664;28;20183;-65
2022/04/18 04:30:12;;;;;;;3.70;1.73;;;0.90;93.50;;;;;;5004887;28;20759;-64
2022/04/18 04:32:38;;;;;;;3.50;1.90;;;0.80;93.30;;;;;;5012150;28;20293;-64
2022/04/18 04:35:04;;;;;;;4.10;2.00;;;0.80;93.30;;;;;;5008144;28;20218;-64
2022/04/18 04:37:29;;;;;;;2.47;1.23;;;0.80;93.70;;;;;;5005492;28;20218;-63
2022/04/18 04:39:55;;;;;;;8.60;2.07;;;0.80;93.70;;;;;;5004851;28;21029;-64
2022/04/18 04:42:21;;;;;;;5.93;2.03;;;0.90;94.00;;;;;;5011761;28;20265;-65
2022/04/18 04:44:46;;;;;;;6.73;2.80;;;0.90;94.00;;;;;;5012153;28;20175;-65
2022/04/18 04:47:12;;;;;;;5.43;1.60;;;1.00;93.90;;;;;;5012647;28;20255;-65
2022/04/18 04:49:38;;;;;;;3.93;2.43;;;1.10;93.70;;;;;;5007120;28;20240;-64
2022/04/18 04:52:05;;;;;;;7.57;2.33;;;1.20;93.40;;;;;;5004956;28;20229;-64
2022/04/18 04:54:31;;;;;;;9.07;3.60;;;1.10;93.20;;;;;;5004853;28;20198;-65
2022/04/18 04:56:57;;;;;;;11.10;3.57;;;1.00;93.30;;;;;;5005431;28;20537;-65
2022/04/18 04:59:22;;;;;;;5.73;2.93;;;1.10;93.60;;;;;;5004710;28;20469;-65
2022/04/18 05:01:48;;;;;;;6.83;3.47;;;1.20;93.50;;;;;;5005725;28;20186;-65
2022/04/18 05:04:13;;;;;;;6.90;3.13;;;1.20;93.50;;;;;;5005255;28;20195;-65
2022/04/18 05:06:40;;;;;;;5.17;2.57;;;1.30;93.60;;;;;;5005470;28;20202;-65
2022/04/18 05:09:06;;;;;;;6.50;2.90;;;1.30;93.20;;;;;;5012267;28;20206;-66
2022/04/18 05:11:32;;;;;;;3.67;2.10;;;1.30;93.30;;;;;;5014774;28;20427;-67
2022/04/18 05:13:58;;;;;;;4.87;2.60;;;1.20;93.20;;;;;;4991130;28;20437;-66
2022/04/18 05:16:24;;;;;;;4.87;2.90;;;1.30;93.40;;;;;;5009104;28;21018;-64
2022/04/18 05:18:50;;;;;;;3.60;2.00;;;1.30;93.70;;;;;;5008135;28;20202;-65
2022/04/18 05:21:16;;;;;;;3.47;2.13;;;1.50;93.80;;;;;;5001889;28;20767;-66
2022/04/18 05:23:42;;;;;;;3.77;2.10;;;1.50;93.50;;;;;;5007356;28;20428;-67
2022/04/18 05:26:08;;;;;;;5.83;2.60;;;1.50;93.40;;;;;;5009165;28;20434;-66
2022/04/18 05:28:33;;;;;;;4.63;2.57;;;1.50;93.60;;;;;;5008877;28;20663;-66
2022/04/18 05:30:59;;;;;;;6.67;2.73;;;1.50;93.80;;;;;;5009223;28;20191;-67
2022/04/18 05:33:25;;;;;;;5.90;2.93;;;1.70;94.30;;;;;;5008682;28;20278;-66
2022/04/18 05:35:50;;;;;;;4.10;2.37;;;1.70;94.20;;;;;;5013772;28;20211;-67
2022/04/18 05:38:17;;;;;;;5.40;2.80;;;1.90;94.60;;;;;;5007137;28;20253;-67
2022/04/18 05:40:43;;;;;;;4.90;2.50;;;1.90;94.20;;;;;;5008368;28;20257;-67
2022/04/18 05:43:08;;;;;;;5.70;3.27;;;1.90;94.50;;;;;;5008406;28;20981;-67
2022/04/18 05:45:38;;;;;;;7.00;4.03;;;2.00;94.40;;;;;;5011766;28;20260;-67
2022/04/18 05:48:05;;;;;;;12.20;5.20;;;2.10;94.20;;;;;;5010361;28;20179;-62
2022/04/18 05:50:31;;;;;;;15.33;6.40;;;2.20;93.50;;;;;;5007907;28;20521;-67
2022/04/18 05:52:56;;;;;;;12.07;6.60;;;2.30;93.30;;;;;;5007822;28;20487;-66
2022/04/18 05:55:22;;;;;;;11.00;6.17;;;2.50;93.30;;;;;;5008385;28;20823;-66
2022/04/18 05:57:49;;;;;;;7.00;4.77;;;2.60;93.30;;;;;;5008681;28;20725;-66
2022/04/18 06:00:16;;;;;;;10.23;4.70;;;2.70;93.00;;;;;;5011169;28;20449;-64
2022/04/18 06:02:41;;;;;;;6.90;3.30;;;2.90;93.50;;;;;;5012234;28;20907;-64
2022/04/18 06:05:07;;;;;;;10.90;2.97;;;2.90;93.00;;;;;;5008413;28;20446;-65
2022/04/18 06:07:34;;;;;;;6.70;2.63;;;3.20;91.80;;;;;;5007678;28;20266;-65
2022/04/18 06:10:00;;;;;;;6.70;2.90;;;3.30;91.30;;;;;;5007500;28;20175;-65
2022/04/18 06:12:26;;;;;;;7.43;2.30;;;3.50;90.80;;;;;;5008136;28;20495;-64
2022/04/18 06:14:52;;;;;;;3.40;2.27;;;3.70;90.60;;;;;;5007862;28;20535;-65
2022/04/18 06:17:18;;;;;;;4.87;2.30;;;3.80;90.80;;;;;;5008260;28;20191;-63
2022/04/18 06:19:43;;;;;;;4.40;2.67;;;4.00;90.40;;;;;;5007420;28;20250;-62
2022/04/18 06:22:09;;;;;;;3.33;2.20;;;4.20;90.20;;;;;;5007811;28;20191;-66
2022/04/18 06:24:35;;;;;;;9.37;2.37;;;4.20;90.10;;;;;;5006027;28;20266;-66
2022/04/18 06:27:01;;;;;;;6.77;2.67;;;4.30;89.60;;;;;;5007590;28;20199;-66
2022/04/18 06:29:26;;;;;;;5.13;1.50;;;4.50;89.50;;;;;;5007326;28;20214;-67
2022/04/18 06:31:53;;;;;;;4.97;2.10;;;4.60;88.30;;;;;;5008179;28;20265;-64
2022/04/18 06:34:20;;;;;;;5.57;1.87;;;4.90;86.80;;;;;;5007721;28;20191;-67
2022/04/18 06:36:45;;;;;;;5.20;2.03;;;5.00;86.30;;;;;;5011871;28;20437;-65
2022/04/18 06:39:11;;;;;;;4.90;1.97;;;5.20;84.90;;;;;;5006219;28;20894;-66
2022/04/18 06:41:37;;;;;;;5.13;2.00;;;5.50;84.80;;;;;;5007049;28;20626;-65
2022/04/18 06:44:02;;;;;;;5.50;2.50;;;5.90;83.50;;;;;;5007609;28;20214;-66
2022/04/18 06:46:28;;;;;;;7.30;2.43;;;6.20;82.50;;;;;;5023846;28;20292;-65
2022/04/18 06:48:53;;;;;;;3.70;2.00;;;6.40;82.40;;;;;;5016492;28;20213;-65
2022/04/18 06:51:19;;;;;;;6.03;1.93;;;6.60;82.30;;;;;;5012412;28;20682;-66
2022/04/18 06:53:45;;;;;;;4.47;2.07;;;6.70;81.00;;;;;;5006800;28;20221;-66
2022/04/18 06:58:59;;;;;;;5.00;2.13;;;7.10;78.80;;;;;;4968952;28;20230;-65
2022/04/18 07:01:25;;;;;;;4.30;2.13;;;7.30;78.00;;;;;;5007174;28;20444;-65
2022/04/18 07:03:50;;;;;;;4.40;1.60;;;7.30;78.40;;;;;;5006872;28;20627;-65
2022/04/18 07:06:16;;;;;;;6.00;2.17;;;7.50;78.60;;;;;;5007110;28;20214;-66
2022/04/18 07:08:42;;;;;;;5.33;2.40;;;7.80;77.80;;;;;;5005752;28;20278;-66
2022/04/18 07:11:07;;;;;;;6.27;2.70;;;8.00;76.40;;;;;;5007009;28;20183;-66
2022/04/18 07:13:33;;;;;;;5.20;2.13;;;8.30;77.10;;;;;;5007472;28;20565;-65
2022/04/18 07:16:00;;;;;;;7.07;2.67;;;9.00;74.60;;;;;;5015282;28;20214;-67
2022/04/18 07:18:26;;;;;;;4.87;2.90;;;9.50;72.60;;;;;;5005701;28;21080;-64
2022/04/18 07:20:51;;;;;;;3.63;2.20;;;10.00;70.20;;;;;;5006884;28;20418;-67
2022/04/18 07:23:17;;;;;;;4.13;2.13;;;10.40;67.80;;;;;;5009919;28;20257;-67
2022/04/18 07:25:43;;;;;;;3.90;1.63;;;10.80;68.00;;;;;;5006692;28;20203;-67
2022/04/18 07:28:08;;;;;;;2.97;1.60;;;11.40;64.50;;;;;;5006534;28;20191;-67
2022/04/18 07:30:34;;;;;;;3.20;1.73;;;11.90;63.20;;;;;;5005798;28;20270;-68
2022/04/18 07:33:00;;;;;;;3.00;1.83;;;13.60;62.00;;;;;;5006999;28;20202;-68
2022/04/18 07:35:26;;;;;;;5.30;1.83;;;15.10;58.40;;;;;;5011665;28;20221;-67
2022/04/18 07:40:35;;;;;;;3.97;1.67;;;16.70;53.30;;;;;;5012680;28;20270;-67
2022/04/18 07:43:01;;;;;;;3.20;1.77;;;15.60;54.20;;;;;;5006580;28;20520;-67
2022/04/18 07:45:27;;;;;;;3.63;1.90;;;16.70;53.70;;;;;;5010463;28;20217;-66
2022/04/18 07:47:52;;;;;;;4.73;2.13;;;17.10;52.00;;;;;;5009045;28;20278;-68
2022/04/18 07:50:19;;;;;;;5.97;2.07;;;16.90;51.60;;;;;;5005593;28;20210;-66
2022/04/18 07:52:45;;;;;;;2.87;1.60;;;18.00;51.20;;;;;;5005587;28;20190;-67
2022/04/18 07:55:11;;;;;;;2.57;1.53;;;18.40;49.40;;;;;;5006752;28;20441;-64
2022/04/18 07:57:37;;;;;;;3.47;1.87;;;17.60;49.80;;;;;;5006033;28;20204;-67
2022/04/18 08:00:07;;;;;;;4.47;1.80;;;17.30;50.50;;;;;;4999011;28;20193;-66
2022/04/18 08:02:34;;;;;;;4.53;1.80;;;17.80;50.20;;;;;;5002456;28;20435;-66
2022/04/18 08:05:00;;;;;;;2.50;1.70;;;18.90;48.80;;;;;;4999395;28;20429;-66
2022/04/18 08:07:26;;;;;;;5.00;2.23;;;18.10;49.70;;;;;;5011702;28;20422;-65
2022/04/18 08:09:51;;;;;;;4.80;1.30;;;17.70;50.80;;;;;;5005283;28;20700;-67
2022/04/18 08:12:17;;;;;;;3.00;1.83;;;17.60;50.00;;;;;;5005400;28;20182;-68
2022/04/18 08:14:42;;;;;;;3.60;2.00;;;16.90;49.70;;;;;;5005784;28;20202;-67
2022/04/18 08:17:08;;;;;;;11.40;1.50;;;16.80;49.90;;;;;;5005784;28;20253;-67
2022/04/18 08:19:35;;;;;;;2.73;1.30;;;16.70;50.40;;;;;;5005433;28;20349;-67
2022/04/18 08:22:02;;;;;;;2.23;1.30;;;16.70;50.80;;;;;;5005643;28;20421;-66
2022/04/18 08:24:28;;;;;;;4.07;1.80;;;16.40;50.80;;;;;;5003498;28;20429;-66
2022/04/18 08:26:54;;;;;;;3.57;1.50;;;17.00;50.90;;;;;;5006970;28;20440;-66
2022/04/18 08:29:22;;;;;;;4.73;1.87;;;17.50;51.50;;;;;;5010386;28;20196;-66
2022/04/18 08:31:48;;;;;;;3.57;1.70;;;18.00;49.40;;;;;;5010656;28;20568;-66
2022/04/18 08:34:14;;;;;;;2.37;0.90;;;18.20;49.20;;;;;;5006077;28;20944;-68
2022/04/18 08:36:40;;;;;;;7.00;2.37;;;18.20;49.30;;;;;;5011771;28;20774;-69
2022/04/18 08:39:05;;;;;;;5.10;1.70;;;17.90;50.30;;;;;;5004523;28;21052;-68
2022/04/18 08:41:40;;;;;;;4.37;2.03;;;17.50;48.50;;;;;;5005582;28;20221;-68
2022/04/18 08:44:08;;;;;;;2.80;1.30;;;17.40;50.30;;;;;;5009450;28;20273;-68
2022/04/18 08:46:34;;;;;;;3.40;1.63;;;17.60;49.40;;;;;;5016448;28;20507;-68
2022/04/18 08:54:30;;;;;;;7.70;1.73;;;18.00;48.70;;;;;;5008106;28;20463;-67
2022/04/18 08:56:57;;;;;;;5.17;1.87;;;17.70;48.00;;;;;;5010043;28;20457;-66
2022/04/18 08:59:22;;;;;;;4.47;2.17;;;17.80;49.10;;;;;;5008792;28;20685;-66
2022/04/18 09:01:50;;;;;;;3.23;1.70;;;18.80;47.10;;;;;;5003341;28;20476;-68
2022/04/18 09:04:19;;;;;;;3.60;1.37;;;18.50;46.00;;;;;;5009611;28;20506;-68
2022/04/18 09:06:44;;;;;;;3.13;1.50;;;17.80;47.00;;;;;;5003115;28;20456;-67
2022/04/18 09:09:10;;;;;;;2.90;1.53;;;18.40;45.90;;;;;;5008149;28;20430;-67
2022/04/18 09:11:37;;;;;;;3.83;1.93;;;18.40;46.00;;;;;;5010068;28;20685;-68
2022/04/18 09:14:03;;;;;;;3.50;1.63;;;17.50;46.80;;;;;;5009370;28;20187;-68
2022/04/18 09:16:29;;;;;;;2.70;1.60;;;17.20;48.10;;;;;;5009077;28;20460;-67
2022/04/18 09:19:11;;;;;;;4.97;2.17;;;17.00;48.80;;;;;;5019529;28;20215;-68
2022/04/18 09:22:07;;;;;;;4.03;2.00;;;17.20;49.20;;;;;;5004043;28;20742;-67
2022/04/18 09:24:36;;;;;;;2.90;1.63;;;17.70;48.00;;;;;;4995263;28;20459;-67
2022/04/18 09:27:25;;;;;;;4.17;1.80;;;17.40;48.20;;;;;;5008554;28;20449;-68
2022/04/18 09:30:11;;;;;;;2.20;1.30;;;17.30;48.60;;;;;;5003571;28;20448;-66
2022/04/18 09:32:41;;;;;;;2.53;1.30;;;17.30;50.00;;;;;;5008960;28;20588;-68
2022/04/18 09:35:07;;;;;;;4.43;2.37;;;16.10;49.60;;;;;;5009229;28;20929;-68
2022/04/18 09:37:33;;;;;;;3.67;1.80;;;16.70;49.80;;;;;;5007853;28;21122;-67
2022/04/18 09:39:59;;;;;;;3.53;1.83;;;16.80;49.60;;;;;;5008219;28;20448;-67
2022/04/18 09:42:27;;;;;;;3.70;1.80;;;17.30;49.50;;;;;;5008995;28;20441;-67
2022/04/18 09:44:53;;;;;;;5.03;2.13;;;16.60;51.40;;;;;;5009081;28;20669;-67
2022/04/18 09:47:21;;;;;;;3.97;1.90;;;17.30;50.20;;;;;;5017667;28;20441;-68
2022/04/18 09:49:47;;;;;;;4.20;1.50;;;17.40;48.90;;;;;;5008168;28;20455;-67
2022/04/18 09:52:17;;;;;;;3.70;1.57;;;17.30;48.50;;;;;;5008304;28;21070;-66
2022/04/18 09:54:53;;;;;;;2.87;1.60;;;16.80;49.80;;;;;;5006531;28;20205;-67
2022/04/18 09:57:28;;;;;;;6.03;2.03;;;16.80;49.50;;;;;;5008785;28;20899;-67
2022/04/18 09:59:58;;;;;;;2.53;1.40;;;16.40;50.20;;;;;;5007842;28;20898;-66
2022/04/18 10:02:25;;;;;;;4.17;1.83;;;15.70;52.50;;;;;;5007711;28;20437;-64
2022/04/18 10:04:52;;;;;;;3.87;1.83;;;15.50;53.00;;;;;;5008201;28;20514;-66
2022/04/18 10:07:19;;;;;;;5.20;2.40;;;15.10;51.90;;;;;;5009044;28;20962;-66
2022/04/18 10:09:45;;;;;;;2.60;1.60;;;15.00;52.20;;;;;;5018363;28;20600;-63
2022/04/18 10:12:12;;;;;;;3.30;1.70;;;15.20;52.90;;;;;;5011711;28;20513;-64
2022/04/18 10:14:39;;;;;;;5.10;2.30;;;14.90;53.80;;;;;;5007955;28;20452;-66
2022/04/18 10:17:10;;;;;;;4.00;2.10;;;14.90;53.30;;;;;;5008033;28;20441;-64
2022/04/18 10:19:54;;;;;;;3.50;1.70;;;15.00;54.90;;;;;;5007475;28;20473;-66
2022/04/18 10:22:53;;;;;;;2.93;1.43;;;15.00;53.20;;;;;;5014668;28;20740;-66
2022/04/18 10:25:40;;;;;;;4.50;1.97;;;15.00;53.20;;;;;;5004925;28;20586;-65
2022/04/18 10:28:14;;;;;;;4.03;1.57;;;15.00;54.50;;;;;;5014583;28;20819;-65
2022/04/18 10:30:49;;;;;;;4.97;2.23;;;15.00;53.30;;;;;;5007544;28;20688;-66
2022/04/18 10:33:17;;;;;;;3.33;1.63;;;15.20;53.40;;;;;;5003070;28;20914;-64
2022/04/18 10:36:03;;;;;;;4.53;1.77;;;15.30;52.00;;;;;;5008984;28;20449;-66
2022/04/18 10:38:33;;;;;;;3.63;2.07;;;15.20;52.00;;;;;;5004422;28;21048;-67
2022/04/18 10:41:17;;;;;;;5.30;1.70;;;14.90;51.60;;;;;;5007495;28;21078;-67
2022/04/18 10:44:05;;;;;;;5.07;1.50;;;14.90;52.30;;;;;;5006304;28;20405;-67
2022/04/18 10:46:32;;;;;;;4.53;1.83;;;15.00;52.40;;;;;;5004074;28;20469;-67
2022/04/18 10:49:00;;;;;;;3.13;1.60;;;15.20;52.50;;;;;;4979466;28;20438;-66
2022/04/18 10:51:39;;;;;;;5.17;2.37;;;15.40;52.10;;;;;;5002527;28;20560;-64
2022/04/18 10:54:09;;;;;;;4.77;2.30;;;15.40;50.50;;;;;;5010328;28;20967;-67
2022/04/18 10:56:50;;;;;;;10.20;1.83;;;15.30;52.00;;;;;;5001955;28;20660;-67
2022/04/18 10:59:27;;;;;;;9.83;2.50;;;15.40;51.70;;;;;;5003671;28;20544;-65
2022/04/18 11:01:58;;;;;;;5.37;2.33;;;15.40;53.10;;;;;;5005266;28;20720;-67
2022/04/18 11:04:43;;;;;;;8.10;2.13;;;15.60;51.30;;;;;;5002164;28;20517;-66
2022/04/18 11:07:10;;;;;;;4.43;1.80;;;15.40;52.60;;;;;;4999987;28;20414;-66
2022/04/18 11:09:46;;;;;;;3.17;1.37;;;15.40;50.60;;;;;;5010229;28;20797;-68
2022/04/18 11:12:16;;;;;;;9.10;2.50;;;15.50;50.40;;;;;;4992311;28;20445;-66
2022/04/18 11:14:45;;;;;;;5.27;2.33;;;15.60;51.10;;;;;;5003303;28;21468;-66
2022/04/18 11:17:12;;;;;;;4.87;1.77;;;15.30;51.10;;;;;;5006413;28;20437;-65
2022/04/18 11:19:40;;;;;;;3.03;1.67;;;15.40;50.30;;;;;;5004713;28;20478;-67
2022/04/18 11:22:14;;;;;;;4.90;2.13;;;15.50;50.40;;;;;;5006344;28;20434;-66
2022/04/18 11:24:52;;;;;;;3.83;1.37;;;15.60;51.10;;;;;;5002712;28;20429;-66
2022/04/18 11:27:52;;;;;;;4.37;2.10;;;15.90;51.40;;;;;;5003435;28;20421;-67
2022/04/18 11:30:18;;;;;;;5.80;2.00;;;16.00;50.60;;;;;;5005028;28;20968;-65
2022/04/18 11:32:46;;;;;;;3.50;1.60;;;16.00;49.40;;;;;;5006506;28;20945;-66
2022/04/18 11:35:13;;;;;;;7.30;2.50;;;15.90;50.30;;;;;;5004441;28;20953;-66
2022/04/18 11:37:43;;;;;;;8.93;3.10;;;15.80;51.20;;;;;;5004115;28;20430;-67
2022/04/18 11:40:11;;;;;;;5.03;2.37;;;16.00;49.40;;;;;;5009214;28;20450;-63
2022/04/18 11:42:39;;;;;;;3.13;1.43;;;15.90;50.20;;;;;;5001328;28;20445;-64
2022/04/18 11:45:07;;;;;;;3.97;2.37;;;16.10;49.80;;;;;;5005961;28;20450;-66
2022/04/18 11:47:40;;;;;;;4.67;1.90;;;16.00;50.30;;;;;;5010475;28;20472;-65
2022/04/18 11:50:07;;;;;;;3.03;1.27;;;16.00;50.50;;;;;;5009598;28;20445;-66
2022/04/18 11:52:35;;;;;;;7.77;2.40;;;16.10;49.50;;;;;;5004755;28;20492;-65
2022/04/18 11:55:15;;;;;;;2.93;1.40;;;16.10;50.90;;;;;;5004735;28;20518;-62
2022/04/18 11:57:48;;;;;;;5.57;2.20;;;16.30;50.40;;;;;;5006507;28;20446;-65
2022/04/18 12:08:45;;;;;;;5.50;2.87;;;16.30;49.50;;;;;;4997370;28;20488;-65
2022/04/18 12:11:11;;;;;;;7.83;2.80;;;16.30;50.90;;;;;;5002255;28;20429;-66
2022/04/18 12:13:44;;;;;;;7.27;2.70;;;16.50;49.40;;;;;;4998809;28;20500;-65
2022/04/18 12:16:11;;;;;;;6.40;2.57;;;16.40;50.10;;;;;;5002724;28;20276;-65
2022/04/18 12:18:38;;;;;;;5.30;2.13;;;16.50;48.90;;;;;;5006693;28;20466;-63
2022/04/18 12:21:04;;;;;;;6.07;2.43;;;16.70;49.70;;;;;;5004474;28;20438;-65
2022/04/18 12:23:29;;;;;;;4.47;1.73;;;16.60;49.40;;;;;;5003833;28;20437;-65
2022/04/18 12:25:59;;;;;;;4.57;1.60;;;16.70;50.50;;;;;;5005671;28;20810;-65
2022/04/18 12:28:29;;;;;;;3.73;1.30;;;17.20;48.50;;;;;;5004994;28;20277;-65
2022/04/18 12:30:56;;;;;;;3.80;1.50;;;17.20;48.90;;;;;;5011057;28;20531;-67
2022/04/18 12:33:27;;;;;;;4.00;1.80;;;17.30;48.50;;;;;;4999287;28;20453;-66
2022/04/18 12:35:53;;;;;;;15.30;1.93;;;17.30;46.90;;;;;;5008653;28;20462;-66
2022/04/18 12:38:28;;;;;;;4.73;1.37;;;17.00;48.00;;;;;;5014367;28;20475;-66
2022/04/18 12:40:56;;;;;;;3.90;2.07;;;17.00;49.30;;;;;;5013315;28;20487;-66
2022/04/18 12:43:27;;;;;;;3.40;1.77;;;17.00;48.70;;;;;;5003381;28;21206;-66
2022/04/18 12:46:07;;;;;;;6.83;2.90;;;17.30;47.40;;;;;;4999434;28;20476;-64
2022/04/18 12:48:34;;;;;;;6.57;2.23;;;17.10;50.10;;;;;;5002826;28;20441;-64
2022/04/18 12:51:05;;;;;;;3.30;1.73;;;17.30;49.50;;;;;;5004554;28;21169;-64
2022/04/18 12:53:52;;;;;;;5.90;2.10;;;17.60;46.90;;;;;;4992556;28;20461;-65
2022/04/18 12:56:23;;;;;;;3.20;1.67;;;17.50;46.50;;;;;;5003901;28;20468;-65
2022/04/18 12:59:09;;;;;;;9.30;2.00;;;17.70;47.50;;;;;;5004018;28;20461;-65
2022/04/18 13:01:39;;;;;;;4.33;1.70;;;17.40;46.90;;;;;;5003433;28;20430;-64
2022/04/18 13:04:27;;;;;;;11.03;1.60;;;17.80;47.20;;;;;;5004516;28;20436;-64
2022/04/18 13:07:02;;;;;;;5.13;2.67;;;17.80;47.80;;;;;;5002971;28;20453;-65
2022/04/18 13:09:28;;;;;;;2.70;1.50;;;17.20;47.70;;;;;;5003730;28;20428;-65
2022/04/18 13:12:03;;;;;;;3.97;1.43;;;17.40;47.70;;;;;;5005047;28;20426;-64
2022/04/18 13:14:29;;;;;;;4.77;1.90;;;17.40;48.70;;;;;;4986886;28;20197;-64
2022/04/18 13:17:11;;;;;;;3.97;1.80;;;17.80;46.60;;;;;;5004105;28;20620;-64
2022/04/18 13:19:38;;;;;;;2.27;1.37;;;17.80;45.60;;;;;;5001326;28;20501;-64
2022/04/18 13:22:05;;;;;;;5.03;1.33;;;17.90;44.90;;;;;;4987217;28;20481;-64
2022/04/18 13:24:31;;;;;;;4.80;2.03;;;17.60;45.90;;;;;;5001390;28;21166;-65